sensor_id;sensor_type;location;lat;lon;timestamp;P1;durP1;ratioP1;P2;durP2;ratioP2
48975;SDS011;34791;52.752;8.346;2023-02-19T00:01:17;41.45;;;18.00;;
48975;SDS011;34791;52.752;8.346;2023-02-19T00:03:48;41.37;;;18.43;;
48975;SDS011;34791;52.752;8.346;2023-02-19T00:06:21;47.83;;;18.57;;
48975;SDS011;34791;52.752;8.346;2023-02-19T00:08:48;43.00;;;18.33;;
48975;SDS011;34791;52.752;8.346;2023-02-19T00:11:15;45.53;;;19.63;;
48975;SDS011;34791;52.752;8.346;2023-02-19T00:13:43;48.03;;;19.33;;
48975;SDS011;34791;52.752;8.346;2023-02-19T00:16:18;49.77;;;21.03;;
48975;SDS011;34791;52.752;8.346;2023-02-19T00:18:45;48.97;;;20.37;;
48975;SDS011;34791;52.752;8.346;2023-02-19T00:21:11;52.77;;;19.63;;
48975;SDS011;34791;52.752;8.346;2023-02-19T00:23:37;42.37;;;17.47;;
48975;SDS011;34791;52.752;8.346;2023-02-19T00:26:04;45.10;;;18.40;;
48975;SDS011;34791;52.752;8.346;2023-02-19T00:28:31;44.43;;;18.33;;
48975;SDS011;34791;52.752;8.346;2023-02-19T00:31:07;39.83;;;17.07;;
48975;SDS011;34791;52.752;8.346;2023-02-19T00:33:36;41.77;;;16.13;;
48975;SDS011;34791;52.752;8.346;2023-02-19T00:36:02;41.47;;;17.53;;
48975;SDS011;34791;52.752;8.346;2023-02-19T00:38:29;42.83;;;17.73;;
48975;SDS011;34791;52.752;8.346;2023-02-19T00:40:57;42.23;;;18.47;;
48975;SDS011;34791;52.752;8.346;2023-02-19T00:43:24;44.87;;;19.10;;
48975;SDS011;34791;52.752;8.346;2023-02-19T00:45:50;44.47;;;18.03;;
48975;SDS011;34791;52.752;8.346;2023-02-19T00:48:15;40.50;;;16.00;;
48975;SDS011;34791;52.752;8.346;2023-02-19T00:50:41;38.97;;;16.17;;
48975;SDS011;34791;52.752;8.346;2023-02-19T00:53:06;36.27;;;15.00;;
48975;SDS011;34791;52.752;8.346;2023-02-19T00:55:32;42.33;;;17.80;;
48975;SDS011;34791;52.752;8.346;2023-02-19T00:57:57;28.23;;;13.13;;
48975;SDS011;34791;52.752;8.346;2023-02-19T01:00:22;36.03;;;15.53;;
48975;SDS011;34791;52.752;8.346;2023-02-19T01:02:48;35.73;;;15.43;;
48975;SDS011;34791;52.752;8.346;2023-02-19T01:05:13;35.07;;;14.40;;
48975;SDS011;34791;52.752;8.346;2023-02-19T01:07:39;29.13;;;11.70;;
48975;SDS011;34791;52.752;8.346;2023-02-19T01:10:04;33.80;;;15.07;;
48975;SDS011;34791;52.752;8.346;2023-02-19T01:12:30;35.93;;;15.53;;
48975;SDS011;34791;52.752;8.346;2023-02-19T01:14:56;36.57;;;13.17;;
48975;SDS011;34791;52.752;8.346;2023-02-19T01:17:22;31.80;;;13.90;;
48975;SDS011;34791;52.752;8.346;2023-02-19T01:19:47;35.97;;;14.80;;
48975;SDS011;34791;52.752;8.346;2023-02-19T01:22:13;26.63;;;11.13;;
48975;SDS011;34791;52.752;8.346;2023-02-19T01:24:38;26.00;;;11.73;;
48975;SDS011;34791;52.752;8.346;2023-02-19T01:27:03;32.53;;;13.10;;
48975;SDS011;34791;52.752;8.346;2023-02-19T01:29:29;32.73;;;14.73;;
48975;SDS011;34791;52.752;8.346;2023-02-19T01:31:54;30.37;;;14.23;;
48975;SDS011;34791;52.752;8.346;2023-02-19T01:34:20;28.23;;;12.43;;
48975;SDS011;34791;52.752;8.346;2023-02-19T01:36:45;24.90;;;10.50;;
48975;SDS011;34791;52.752;8.346;2023-02-19T01:39:11;26.30;;;12.20;;
48975;SDS011;34791;52.752;8.346;2023-02-19T01:41:37;23.57;;;9.90;;
48975;SDS011;34791;52.752;8.346;2023-02-19T01:46:36;27.05;;;12.23;;
48975;SDS011;34791;52.752;8.346;2023-02-19T01:49:17;28.33;;;12.27;;
48975;SDS011;34791;52.752;8.346;2023-02-19T01:51:48;37.60;;;14.68;;
48975;SDS011;34791;52.752;8.346;2023-02-19T01:54:21;31.70;;;13.23;;
48975;SDS011;34791;52.752;8.346;2023-02-19T01:56:50;29.17;;;11.90;;
48975;SDS011;34791;52.752;8.346;2023-02-19T01:59:18;34.40;;;13.60;;
48975;SDS011;34791;52.752;8.346;2023-02-19T02:01:43;34.47;;;13.80;;
48975;SDS011;34791;52.752;8.346;2023-02-19T02:04:09;31.77;;;12.97;;
48975;SDS011;34791;52.752;8.346;2023-02-19T02:06:55;30.20;;;10.93;;
48975;SDS011;34791;52.752;8.346;2023-02-19T02:09:24;29.70;;;11.07;;
48975;SDS011;34791;52.752;8.346;2023-02-19T02:12:10;31.97;;;12.33;;
48975;SDS011;34791;52.752;8.346;2023-02-19T02:14:37;33.70;;;12.63;;
48975;SDS011;34791;52.752;8.346;2023-02-19T02:22:30;35.23;;;15.13;;
48975;SDS011;34791;52.752;8.346;2023-02-19T02:30:38;15.17;;;8.80;;
48975;SDS011;34791;52.752;8.346;2023-02-19T02:35:34;15.40;;;8.00;;
48975;SDS011;34791;52.752;8.346;2023-02-19T02:38:13;17.83;;;9.37;;
48975;SDS011;34791;52.752;8.346;2023-02-19T02:40:42;16.33;;;7.50;;
48975;SDS011;34791;52.752;8.346;2023-02-19T02:43:09;19.47;;;10.53;;
48975;SDS011;34791;52.752;8.346;2023-02-19T02:45:35;22.67;;;11.40;;
48975;SDS011;34791;52.752;8.346;2023-02-19T02:50:41;23.43;;;12.33;;
48975;SDS011;34791;52.752;8.346;2023-02-19T02:53:17;19.00;;;9.33;;
48975;SDS011;34791;52.752;8.346;2023-02-19T02:56:22;15.53;;;8.33;;
48975;SDS011;34791;52.752;8.346;2023-02-19T02:58:49;16.57;;;8.47;;
48975;SDS011;34791;52.752;8.346;2023-02-19T03:01:21;17.07;;;8.17;;
48975;SDS011;34791;52.752;8.346;2023-02-19T03:04:29;11.90;;;5.67;;
48975;SDS011;34791;52.752;8.346;2023-02-19T03:07:00;22.17;;;10.90;;
48975;SDS011;34791;52.752;8.346;2023-02-19T03:09:34;26.43;;;12.10;;
48975;SDS011;34791;52.752;8.346;2023-02-19T03:12:05;23.23;;;10.80;;
48975;SDS011;34791;52.752;8.346;2023-02-19T03:14:57;24.60;;;10.07;;
48975;SDS011;34791;52.752;8.346;2023-02-19T03:17:50;25.37;;;9.70;;
48975;SDS011;34791;52.752;8.346;2023-02-19T03:20:35;17.43;;;7.17;;
48975;SDS011;34791;52.752;8.346;2023-02-19T03:23:05;19.40;;;7.00;;
48975;SDS011;34791;52.752;8.346;2023-02-19T03:25:33;16.97;;;6.20;;
48975;SDS011;34791;52.752;8.346;2023-02-19T03:28:19;15.13;;;5.20;;
48975;SDS011;34791;52.752;8.346;2023-02-19T03:31:12;25.20;;;6.40;;
48975;SDS011;34791;52.752;8.346;2023-02-19T03:33:42;22.17;;;6.40;;
48975;SDS011;34791;52.752;8.346;2023-02-19T03:36:11;22.73;;;6.90;;
48975;SDS011;34791;52.752;8.346;2023-02-19T03:46:43;15.23;;;4.60;;
48975;SDS011;34791;52.752;8.346;2023-02-19T03:49:22;17.43;;;6.17;;
48975;SDS011;34791;52.752;8.346;2023-02-19T03:51:56;20.90;;;8.20;;
48975;SDS011;34791;52.752;8.346;2023-02-19T03:54:37;26.80;;;7.57;;
48975;SDS011;34791;52.752;8.346;2023-02-19T04:00:01;19.50;;;6.83;;
48975;SDS011;34791;52.752;8.346;2023-02-19T04:02:39;10.57;;;4.00;;
48975;SDS011;34791;52.752;8.346;2023-02-19T04:05:11;13.47;;;4.93;;
48975;SDS011;34791;52.752;8.346;2023-02-19T04:07:41;14.17;;;4.93;;
48975;SDS011;34791;52.752;8.346;2023-02-19T04:10:14;12.90;;;4.43;;
48975;SDS011;34791;52.752;8.346;2023-02-19T04:12:43;13.97;;;4.87;;
48975;SDS011;34791;52.752;8.346;2023-02-19T04:15:13;16.17;;;5.30;;
48975;SDS011;34791;52.752;8.346;2023-02-19T04:18:02;15.47;;;5.57;;
48975;SDS011;34791;52.752;8.346;2023-02-19T04:20:32;15.07;;;5.20;;
48975;SDS011;34791;52.752;8.346;2023-02-19T04:23:03;17.23;;;5.00;;
48975;SDS011;34791;52.752;8.346;2023-02-19T04:25:29;13.40;;;4.13;;
48975;SDS011;34791;52.752;8.346;2023-02-19T04:27:56;15.80;;;4.77;;
48975;SDS011;34791;52.752;8.346;2023-02-19T04:30:22;17.67;;;4.90;;
48975;SDS011;34791;52.752;8.346;2023-02-19T04:32:48;21.60;;;6.83;;
48975;SDS011;34791;52.752;8.346;2023-02-19T04:35:13;23.80;;;6.77;;
48975;SDS011;34791;52.752;8.346;2023-02-19T04:37:39;25.13;;;7.73;;
48975;SDS011;34791;52.752;8.346;2023-02-19T04:40:04;23.57;;;7.03;;
48975;SDS011;34791;52.752;8.346;2023-02-19T04:42:30;27.00;;;7.80;;
48975;SDS011;34791;52.752;8.346;2023-02-19T04:44:55;24.10;;;6.87;;
48975;SDS011;34791;52.752;8.346;2023-02-19T04:47:20;26.17;;;7.27;;
48975;SDS011;34791;52.752;8.346;2023-02-19T04:49:46;28.47;;;8.10;;
48975;SDS011;34791;52.752;8.346;2023-02-19T04:52:11;33.63;;;8.37;;
48975;SDS011;34791;52.752;8.346;2023-02-19T04:54:37;32.53;;;8.80;;
48975;SDS011;34791;52.752;8.346;2023-02-19T04:57:02;35.20;;;10.57;;
48975;SDS011;34791;52.752;8.346;2023-02-19T04:59:28;45.37;;;11.00;;
48975;SDS011;34791;52.752;8.346;2023-02-19T05:01:53;43.30;;;10.63;;
48975;SDS011;34791;52.752;8.346;2023-02-19T05:04:19;45.93;;;12.30;;
48975;SDS011;34791;52.752;8.346;2023-02-19T05:06:44;47.30;;;11.73;;
48975;SDS011;34791;52.752;8.346;2023-02-19T05:09:10;52.67;;;13.27;;
48975;SDS011;34791;52.752;8.346;2023-02-19T05:11:35;54.67;;;14.57;;
48975;SDS011;34791;52.752;8.346;2023-02-19T05:14:01;53.07;;;14.17;;
48975;SDS011;34791;52.752;8.346;2023-02-19T05:16:26;54.47;;;14.83;;
48975;SDS011;34791;52.752;8.346;2023-02-19T05:18:52;57.73;;;16.20;;
48975;SDS011;34791;52.752;8.346;2023-02-19T05:21:17;56.90;;;14.80;;
48975;SDS011;34791;52.752;8.346;2023-02-19T05:23:43;61.50;;;15.53;;
48975;SDS011;34791;52.752;8.346;2023-02-19T05:26:11;57.30;;;15.60;;
48975;SDS011;34791;52.752;8.346;2023-02-19T05:28:41;61.47;;;15.87;;
48975;SDS011;34791;52.752;8.346;2023-02-19T05:31:08;58.63;;;16.10;;
48975;SDS011;34791;52.752;8.346;2023-02-19T05:33:34;61.87;;;14.93;;
48975;SDS011;34791;52.752;8.346;2023-02-19T05:36:03;35.67;;;9.63;;
48975;SDS011;34791;52.752;8.346;2023-02-19T05:38:31;36.40;;;8.87;;
48975;SDS011;34791;52.752;8.346;2023-02-19T05:41:05;28.83;;;7.43;;
48975;SDS011;34791;52.752;8.346;2023-02-19T05:43:32;29.77;;;6.20;;
48975;SDS011;34791;52.752;8.346;2023-02-19T05:45:57;28.17;;;5.90;;
48975;SDS011;34791;52.752;8.346;2023-02-19T05:48:23;23.60;;;4.97;;
48975;SDS011;34791;52.752;8.346;2023-02-19T05:50:48;21.17;;;4.07;;
48975;SDS011;34791;52.752;8.346;2023-02-19T05:53:13;17.23;;;2.93;;
48975;SDS011;34791;52.752;8.346;2023-02-19T05:55:39;9.10;;;1.70;;
48975;SDS011;34791;52.752;8.346;2023-02-19T05:58:04;8.10;;;1.80;;
48975;SDS011;34791;52.752;8.346;2023-02-19T06:00:30;6.63;;;2.10;;
48975;SDS011;34791;52.752;8.346;2023-02-19T06:02:56;6.00;;;1.80;;
48975;SDS011;34791;52.752;8.346;2023-02-19T06:05:22;9.10;;;2.50;;
48975;SDS011;34791;52.752;8.346;2023-02-19T06:07:47;9.10;;;2.53;;
48975;SDS011;34791;52.752;8.346;2023-02-19T06:10:14;11.40;;;3.20;;
48975;SDS011;34791;52.752;8.346;2023-02-19T06:12:40;10.43;;;3.17;;
48975;SDS011;34791;52.752;8.346;2023-02-19T06:15:05;10.93;;;3.20;;
48975;SDS011;34791;52.752;8.346;2023-02-19T06:17:31;12.67;;;4.50;;
48975;SDS011;34791;52.752;8.346;2023-02-19T06:19:57;15.90;;;5.07;;
48975;SDS011;34791;52.752;8.346;2023-02-19T06:22:23;16.03;;;5.37;;
48975;SDS011;34791;52.752;8.346;2023-02-19T06:24:49;17.57;;;5.43;;
48975;SDS011;34791;52.752;8.346;2023-02-19T06:27:14;19.80;;;5.90;;
48975;SDS011;34791;52.752;8.346;2023-02-19T06:29:40;18.17;;;6.27;;
48975;SDS011;34791;52.752;8.346;2023-02-19T06:32:05;23.37;;;7.73;;
48975;SDS011;34791;52.752;8.346;2023-02-19T06:34:31;22.47;;;7.83;;
48975;SDS011;34791;52.752;8.346;2023-02-19T06:36:57;21.00;;;8.17;;
48975;SDS011;34791;52.752;8.346;2023-02-19T06:39:23;22.07;;;7.10;;
48975;SDS011;34791;52.752;8.346;2023-02-19T06:41:49;24.50;;;7.80;;
48975;SDS011;34791;52.752;8.346;2023-02-19T06:44:15;21.90;;;7.80;;
48975;SDS011;34791;52.752;8.346;2023-02-19T06:46:40;22.13;;;7.03;;
48975;SDS011;34791;52.752;8.346;2023-02-19T06:49:06;23.60;;;7.57;;
48975;SDS011;34791;52.752;8.346;2023-02-19T06:51:31;23.40;;;7.10;;
48975;SDS011;34791;52.752;8.346;2023-02-19T06:54:00;20.33;;;7.30;;
48975;SDS011;34791;52.752;8.346;2023-02-19T06:58:57;23.60;;;7.73;;
48975;SDS011;34791;52.752;8.346;2023-02-19T07:01:24;20.70;;;6.90;;
48975;SDS011;34791;52.752;8.346;2023-02-19T07:03:50;20.03;;;6.97;;
48975;SDS011;34791;52.752;8.346;2023-02-19T07:06:17;20.00;;;6.93;;
48975;SDS011;34791;52.752;8.346;2023-02-19T07:08:43;19.27;;;6.90;;
48975;SDS011;34791;52.752;8.346;2023-02-19T07:11:09;18.90;;;6.37;;
48975;SDS011;34791;52.752;8.346;2023-02-19T07:13:35;18.83;;;6.23;;
48975;SDS011;34791;52.752;8.346;2023-02-19T07:16:02;15.57;;;5.40;;
48975;SDS011;34791;52.752;8.346;2023-02-19T07:18:30;14.87;;;5.63;;
48975;SDS011;34791;52.752;8.346;2023-02-19T07:21:02;13.97;;;4.23;;
48975;SDS011;34791;52.752;8.346;2023-02-19T07:23:29;17.37;;;4.47;;
48975;SDS011;34791;52.752;8.346;2023-02-19T07:25:55;14.07;;;4.27;;
48975;SDS011;34791;52.752;8.346;2023-02-19T07:28:20;12.57;;;3.83;;
48975;SDS011;34791;52.752;8.346;2023-02-19T07:30:46;13.73;;;4.77;;
48975;SDS011;34791;52.752;8.346;2023-02-19T07:33:11;11.17;;;3.80;;
48975;SDS011;34791;52.752;8.346;2023-02-19T07:35:36;14.83;;;4.90;;
48975;SDS011;34791;52.752;8.346;2023-02-19T07:38:02;13.80;;;4.27;;
48975;SDS011;34791;52.752;8.346;2023-02-19T07:40:27;18.57;;;5.10;;
48975;SDS011;34791;52.752;8.346;2023-02-19T07:42:53;10.93;;;4.50;;
48975;SDS011;34791;52.752;8.346;2023-02-19T07:45:18;13.40;;;5.40;;
48975;SDS011;34791;52.752;8.346;2023-02-19T07:47:43;16.37;;;5.37;;
48975;SDS011;34791;52.752;8.346;2023-02-19T07:50:09;13.60;;;4.60;;
48975;SDS011;34791;52.752;8.346;2023-02-19T07:52:34;13.13;;;5.10;;
48975;SDS011;34791;52.752;8.346;2023-02-19T07:54:59;13.73;;;5.87;;
48975;SDS011;34791;52.752;8.346;2023-02-19T07:57:26;12.47;;;5.30;;
48975;SDS011;34791;52.752;8.346;2023-02-19T07:59:52;11.73;;;5.70;;
48975;SDS011;34791;52.752;8.346;2023-02-19T08:02:18;15.17;;;5.70;;
48975;SDS011;34791;52.752;8.346;2023-02-19T08:05:03;13.17;;;6.00;;
48975;SDS011;34791;52.752;8.346;2023-02-19T08:07:33;16.40;;;5.83;;
48975;SDS011;34791;52.752;8.346;2023-02-19T08:09:59;12.33;;;6.17;;
48975;SDS011;34791;52.752;8.346;2023-02-19T08:12:44;16.23;;;7.37;;
48975;SDS011;34791;52.752;8.346;2023-02-19T08:15:28;13.80;;;7.27;;
48975;SDS011;34791;52.752;8.346;2023-02-19T08:17:53;16.17;;;6.90;;
48975;SDS011;34791;52.752;8.346;2023-02-19T08:20:19;13.60;;;6.63;;
48975;SDS011;34791;52.752;8.346;2023-02-19T08:22:44;14.57;;;6.80;;
48975;SDS011;34791;52.752;8.346;2023-02-19T08:25:09;12.90;;;6.27;;
48975;SDS011;34791;52.752;8.346;2023-02-19T08:27:35;13.03;;;6.43;;
48975;SDS011;34791;52.752;8.346;2023-02-19T08:30:00;13.87;;;6.10;;
48975;SDS011;34791;52.752;8.346;2023-02-19T08:32:25;11.67;;;6.00;;
48975;SDS011;34791;52.752;8.346;2023-02-19T08:34:51;10.60;;;5.67;;
48975;SDS011;34791;52.752;8.346;2023-02-19T08:37:16;10.60;;;4.90;;
48975;SDS011;34791;52.752;8.346;2023-02-19T08:39:41;12.03;;;5.17;;
48975;SDS011;34791;52.752;8.346;2023-02-19T08:42:07;12.57;;;4.50;;
48975;SDS011;34791;52.752;8.346;2023-02-19T08:44:32;10.80;;;4.50;;
48975;SDS011;34791;52.752;8.346;2023-02-19T08:46:58;9.73;;;4.37;;
48975;SDS011;34791;52.752;8.346;2023-02-19T08:49:26;9.93;;;4.53;;
48975;SDS011;34791;52.752;8.346;2023-02-19T08:51:52;9.40;;;4.13;;
48975;SDS011;34791;52.752;8.346;2023-02-19T08:54:17;13.07;;;4.80;;
48975;SDS011;34791;52.752;8.346;2023-02-19T08:56:42;11.60;;;4.20;;
48975;SDS011;34791;52.752;8.346;2023-02-19T08:59:08;10.87;;;4.83;;
48975;SDS011;34791;52.752;8.346;2023-02-19T09:01:33;14.87;;;7.57;;
48975;SDS011;34791;52.752;8.346;2023-02-19T09:03:59;11.87;;;7.80;;
48975;SDS011;34791;52.752;8.346;2023-02-19T09:06:24;14.23;;;7.00;;
48975;SDS011;34791;52.752;8.346;2023-02-19T09:08:50;12.80;;;7.33;;
48975;SDS011;34791;52.752;8.346;2023-02-19T09:11:15;12.70;;;8.00;;
48975;SDS011;34791;52.752;8.346;2023-02-19T09:13:41;14.20;;;8.53;;
48975;SDS011;34791;52.752;8.346;2023-02-19T09:16:08;16.63;;;9.40;;
48975;SDS011;34791;52.752;8.346;2023-02-19T09:18:33;15.90;;;9.80;;
48975;SDS011;34791;52.752;8.346;2023-02-19T09:21:00;14.90;;;10.10;;
48975;SDS011;34791;52.752;8.346;2023-02-19T09:23:28;16.90;;;10.10;;
48975;SDS011;34791;52.752;8.346;2023-02-19T09:25:58;16.33;;;9.93;;
48975;SDS011;34791;52.752;8.346;2023-02-19T09:28:24;15.50;;;10.23;;
48975;SDS011;34791;52.752;8.346;2023-02-19T09:30:51;17.07;;;10.57;;
48975;SDS011;34791;52.752;8.346;2023-02-19T09:33:16;16.37;;;9.77;;
48975;SDS011;34791;52.752;8.346;2023-02-19T09:35:42;11.90;;;7.03;;
48975;SDS011;34791;52.752;8.346;2023-02-19T09:38:07;11.87;;;8.40;;
48975;SDS011;34791;52.752;8.346;2023-02-19T09:40:35;12.33;;;8.40;;
48975;SDS011;34791;52.752;8.346;2023-02-19T09:43:06;12.37;;;8.20;;
48975;SDS011;34791;52.752;8.346;2023-02-19T09:45:36;12.00;;;7.37;;
48975;SDS011;34791;52.752;8.346;2023-02-19T09:48:02;13.60;;;8.50;;
48975;SDS011;34791;52.752;8.346;2023-02-19T09:50:33;14.87;;;8.40;;
48975;SDS011;34791;52.752;8.346;2023-02-19T09:53:04;13.80;;;8.60;;
48975;SDS011;34791;52.752;8.346;2023-02-19T09:55:41;12.77;;;7.80;;
48975;SDS011;34791;52.752;8.346;2023-02-19T10:00:44;12.40;;;7.63;;
48975;SDS011;34791;52.752;8.346;2023-02-19T10:03:14;12.23;;;7.60;;
48975;SDS011;34791;52.752;8.346;2023-02-19T10:05:47;12.03;;;7.00;;
48975;SDS011;34791;52.752;8.346;2023-02-19T10:08:14;13.00;;;6.33;;
48975;SDS011;34791;52.752;8.346;2023-02-19T10:10:43;8.57;;;5.75;;
48975;SDS011;34791;52.752;8.346;2023-02-19T10:15:52;10.57;;;5.53;;
48975;SDS011;34791;52.752;8.346;2023-02-19T10:18:22;9.07;;;6.03;;
48975;SDS011;34791;52.752;8.346;2023-02-19T10:20:52;8.98;;;5.47;;
48975;SDS011;34791;52.752;8.346;2023-02-19T10:23:17;8.27;;;4.70;;
48975;SDS011;34791;52.752;8.346;2023-02-19T10:25:52;10.03;;;5.50;;
48975;SDS011;34791;52.752;8.346;2023-02-19T10:28:21;9.70;;;4.20;;
48975;SDS011;34791;52.752;8.346;2023-02-19T10:30:51;7.90;;;4.00;;
48975;SDS011;34791;52.752;8.346;2023-02-19T10:33:18;7.07;;;3.40;;
48975;SDS011;34791;52.752;8.346;2023-02-19T10:36:04;7.60;;;3.70;;
48975;SDS011;34791;52.752;8.346;2023-02-19T10:38:32;6.47;;;2.80;;
48975;SDS011;34791;52.752;8.346;2023-02-19T10:43:31;8.53;;;3.00;;
48975;SDS011;34791;52.752;8.346;2023-02-19T10:46:02;6.60;;;3.00;;
48975;SDS011;34791;52.752;8.346;2023-02-19T10:48:31;6.40;;;2.63;;
48975;SDS011;34791;52.752;8.346;2023-02-19T10:51:01;6.67;;;3.27;;
48975;SDS011;34791;52.752;8.346;2023-02-19T10:53:44;14.90;;;7.97;;
48975;SDS011;34791;52.752;8.346;2023-02-19T10:56:12;14.40;;;8.63;;
48975;SDS011;34791;52.752;8.346;2023-02-19T10:58:38;14.37;;;8.10;;
48975;SDS011;34791;52.752;8.346;2023-02-19T11:01:10;9.77;;;5.50;;
48975;SDS011;34791;52.752;8.346;2023-02-19T11:03:40;10.60;;;5.40;;
48975;SDS011;34791;52.752;8.346;2023-02-19T11:06:07;9.73;;;4.70;;
48975;SDS011;34791;52.752;8.346;2023-02-19T11:08:43;13.00;;;6.23;;
48975;SDS011;34791;52.752;8.346;2023-02-19T11:13:59;12.00;;;3.93;;
48975;SDS011;34791;52.752;8.346;2023-02-19T11:16:39;11.67;;;4.57;;
48975;SDS011;34791;52.752;8.346;2023-02-19T11:19:27;7.60;;;4.63;;
48975;SDS011;34791;52.752;8.346;2023-02-19T11:21:59;9.45;;;5.95;;
48975;SDS011;34791;52.752;8.346;2023-02-19T11:26:50;14.87;;;8.33;;
48975;SDS011;34791;52.752;8.346;2023-02-19T11:29:16;15.43;;;9.47;;
48975;SDS011;34791;52.752;8.346;2023-02-19T11:31:46;15.97;;;8.63;;
48975;SDS011;34791;52.752;8.346;2023-02-19T11:39:34;9.87;;;5.97;;
48975;SDS011;34791;52.752;8.346;2023-02-19T11:49:42;9.87;;;5.70;;
48975;SDS011;34791;52.752;8.346;2023-02-19T11:54:50;10.70;;;5.70;;
48975;SDS011;34791;52.752;8.346;2023-02-19T11:57:37;9.57;;;5.33;;
48975;SDS011;34791;52.752;8.346;2023-02-19T12:03:06;9.80;;;4.40;;
48975;SDS011;34791;52.752;8.346;2023-02-19T12:16:45;7.10;;;3.97;;
48975;SDS011;34791;52.752;8.346;2023-02-19T12:19:42;7.37;;;3.70;;
48975;SDS011;34791;52.752;8.346;2023-02-19T12:32:48;10.20;;;3.60;;
48975;SDS011;34791;52.752;8.346;2023-02-19T12:38:34;7.40;;;2.90;;
48975;SDS011;34791;52.752;8.346;2023-02-19T12:44:04;7.97;;;2.20;;
48975;SDS011;34791;52.752;8.346;2023-02-19T12:46:35;11.63;;;4.20;;
48975;SDS011;34791;52.752;8.346;2023-02-19T12:49:10;11.63;;;3.70;;
48975;SDS011;34791;52.752;8.346;2023-02-19T12:54:12;6.73;;;1.90;;
48975;SDS011;34791;52.752;8.346;2023-02-19T12:56:46;5.07;;;1.70;;
48975;SDS011;34791;52.752;8.346;2023-02-19T13:02:02;9.40;;;1.87;;
48975;SDS011;34791;52.752;8.346;2023-02-19T13:07:12;4.20;;;1.60;;
48975;SDS011;34791;52.752;8.346;2023-02-19T13:09:59;4.70;;;1.30;;
48975;SDS011;34791;52.752;8.346;2023-02-19T13:12:39;5.70;;;1.67;;
48975;SDS011;34791;52.752;8.346;2023-02-19T13:17:49;5.30;;;1.50;;
48975;SDS011;34791;52.752;8.346;2023-02-19T13:20:50;5.93;;;1.50;;
48975;SDS011;34791;52.752;8.346;2023-02-19T13:23:12;4.93;;;1.70;;
48975;SDS011;34791;52.752;8.346;2023-02-19T13:31:27;5.93;;;1.43;;
48975;SDS011;34791;52.752;8.346;2023-02-19T13:36:25;5.33;;;1.43;;
48975;SDS011;34791;52.752;8.346;2023-02-19T13:38:53;5.32;;;1.38;;
48975;SDS011;34791;52.752;8.346;2023-02-19T13:44:26;6.47;;;1.50;;
48975;SDS011;34791;52.752;8.346;2023-02-19T13:46:56;4.63;;;1.30;;
48975;SDS011;34791;52.752;8.346;2023-02-19T13:49:23;5.17;;;1.20;;
48975;SDS011;34791;52.752;8.346;2023-02-19T13:51:55;5.53;;;1.10;;
48975;SDS011;34791;52.752;8.346;2023-02-19T13:54:29;8.93;;;1.40;;
48975;SDS011;34791;52.752;8.346;2023-02-19T13:59:42;6.00;;;1.60;;
48975;SDS011;34791;52.752;8.346;2023-02-19T14:02:13;4.43;;;1.60;;
48975;SDS011;34791;52.752;8.346;2023-02-19T14:04:50;6.07;;;1.70;;
48975;SDS011;34791;52.752;8.346;2023-02-19T14:07:36;5.23;;;1.40;;
48975;SDS011;34791;52.752;8.346;2023-02-19T14:10:12;4.47;;;1.50;;
48975;SDS011;34791;52.752;8.346;2023-02-19T14:12:54;4.00;;;1.37;;
48975;SDS011;34791;52.752;8.346;2023-02-19T14:21:06;5.33;;;1.20;;
48975;SDS011;34791;52.752;8.346;2023-02-19T14:23:39;5.00;;;1.47;;
48975;SDS011;34791;52.752;8.346;2023-02-19T14:26:05;5.03;;;1.20;;
48975;SDS011;34791;52.752;8.346;2023-02-19T14:28:33;4.77;;;1.20;;
48975;SDS011;34791;52.752;8.346;2023-02-19T14:34:03;6.30;;;1.37;;
48975;SDS011;34791;52.752;8.346;2023-02-19T14:36:57;7.37;;;1.63;;
48975;SDS011;34791;52.752;8.346;2023-02-19T14:39:29;5.90;;;1.43;;
48975;SDS011;34791;52.752;8.346;2023-02-19T14:42:03;5.23;;;1.40;;
48975;SDS011;34791;52.752;8.346;2023-02-19T14:44:39;6.57;;;2.00;;
48975;SDS011;34791;52.752;8.346;2023-02-19T14:47:12;4.57;;;1.30;;
48975;SDS011;34791;52.752;8.346;2023-02-19T14:49:48;5.18;;;1.40;;
48975;SDS011;34791;52.752;8.346;2023-02-19T14:52:27;2.97;;;1.20;;
48975;SDS011;34791;52.752;8.346;2023-02-19T14:55:08;3.37;;;1.10;;
48975;SDS011;34791;52.752;8.346;2023-02-19T14:57:44;3.87;;;1.20;;
48975;SDS011;34791;52.752;8.346;2023-02-19T15:02:46;6.90;;;1.40;;
48975;SDS011;34791;52.752;8.346;2023-02-19T15:05:14;3.47;;;1.03;;
48975;SDS011;34791;52.752;8.346;2023-02-19T15:07:45;5.17;;;1.40;;
48975;SDS011;34791;52.752;8.346;2023-02-19T15:10:11;4.97;;;2.07;;
48975;SDS011;34791;52.752;8.346;2023-02-19T15:12:41;4.43;;;1.50;;
48975;SDS011;34791;52.752;8.346;2023-02-19T15:15:19;4.07;;;1.80;;
48975;SDS011;34791;52.752;8.346;2023-02-19T15:17:47;4.67;;;1.93;;
48975;SDS011;34791;52.752;8.346;2023-02-19T15:20:15;5.93;;;1.57;;
48975;SDS011;34791;52.752;8.346;2023-02-19T15:22:43;4.60;;;1.53;;
48975;SDS011;34791;52.752;8.346;2023-02-19T15:25:16;4.83;;;1.60;;
48975;SDS011;34791;52.752;8.346;2023-02-19T15:27:45;3.20;;;1.20;;
48975;SDS011;34791;52.752;8.346;2023-02-19T15:33:12;4.73;;;1.10;;
48975;SDS011;34791;52.752;8.346;2023-02-19T15:35:39;3.57;;;1.13;;
48975;SDS011;34791;52.752;8.346;2023-02-19T15:38:04;4.90;;;1.10;;
48975;SDS011;34791;52.752;8.346;2023-02-19T15:40:36;6.35;;;1.20;;
48975;SDS011;34791;52.752;8.346;2023-02-19T15:43:02;8.57;;;1.40;;
48975;SDS011;34791;52.752;8.346;2023-02-19T15:45:50;4.97;;;1.10;;
48975;SDS011;34791;52.752;8.346;2023-02-19T15:48:16;4.57;;;1.20;;
48975;SDS011;34791;52.752;8.346;2023-02-19T15:50:53;10.77;;;1.60;;
48975;SDS011;34791;52.752;8.346;2023-02-19T15:53:32;4.47;;;1.50;;
48975;SDS011;34791;52.752;8.346;2023-02-19T15:58:37;6.00;;;1.60;;
48975;SDS011;34791;52.752;8.346;2023-02-19T16:01:24;3.88;;;1.30;;
48975;SDS011;34791;52.752;8.346;2023-02-19T16:03:51;5.40;;;1.50;;
48975;SDS011;34791;52.752;8.346;2023-02-19T16:06:18;4.93;;;1.80;;
48975;SDS011;34791;52.752;8.346;2023-02-19T16:08:45;4.33;;;1.60;;
48975;SDS011;34791;52.752;8.346;2023-02-19T16:11:36;8.07;;;1.97;;
48975;SDS011;34791;52.752;8.346;2023-02-19T16:16:54;4.97;;;1.73;;
48975;SDS011;34791;52.752;8.346;2023-02-19T16:19:24;7.47;;;2.17;;
48975;SDS011;34791;52.752;8.346;2023-02-19T16:21:51;9.67;;;1.90;;
48975;SDS011;34791;52.752;8.346;2023-02-19T16:24:24;4.87;;;1.97;;
48975;SDS011;34791;52.752;8.346;2023-02-19T16:27:01;4.77;;;1.90;;
48975;SDS011;34791;52.752;8.346;2023-02-19T16:29:29;12.90;;;2.50;;
48975;SDS011;34791;52.752;8.346;2023-02-19T16:31:57;8.00;;;2.30;;
48975;SDS011;34791;52.752;8.346;2023-02-19T16:42:31;5.93;;;2.47;;
48975;SDS011;34791;52.752;8.346;2023-02-19T16:44:57;8.27;;;2.80;;
48975;SDS011;34791;52.752;8.346;2023-02-19T16:47:33;7.47;;;2.90;;
48975;SDS011;34791;52.752;8.346;2023-02-19T16:50:05;7.03;;;2.83;;
48975;SDS011;34791;52.752;8.346;2023-02-19T16:52:36;10.43;;;3.03;;
48975;SDS011;34791;52.752;8.346;2023-02-19T16:55:05;8.80;;;3.13;;
48975;SDS011;34791;52.752;8.346;2023-02-19T16:57:36;6.70;;;2.93;;
48975;SDS011;34791;52.752;8.346;2023-02-19T17:00:01;6.33;;;3.10;;
48975;SDS011;34791;52.752;8.346;2023-02-19T17:02:27;6.80;;;3.77;;
48975;SDS011;34791;52.752;8.346;2023-02-19T17:04:52;12.40;;;7.53;;
48975;SDS011;34791;52.752;8.346;2023-02-19T17:07:19;10.17;;;5.83;;
48975;SDS011;34791;52.752;8.346;2023-02-19T17:09:46;11.83;;;4.10;;
48975;SDS011;34791;52.752;8.346;2023-02-19T17:12:12;7.50;;;4.37;;
48975;SDS011;34791;52.752;8.346;2023-02-19T17:14:39;9.30;;;4.20;;